createdAt,value
2022-10-19T00:00:20.097Z,0
2022-10-19T00:05:17.074Z,0
2022-10-19T00:10:17.113Z,0
2022-10-19T00:15:17.151Z,0
2022-10-19T00:20:20.129Z,0
2022-10-19T00:25:20.110Z,0
2022-10-19T00:30:20.110Z,0
2022-10-19T00:35:20.120Z,0
2022-10-19T00:40:17.144Z,0
2022-10-19T00:45:20.130Z,0
2022-10-19T00:50:20.203Z,0
2022-10-19T00:55:20.122Z,0
2022-10-19T01:00:20.143Z,0
2022-10-19T01:05:20.131Z,0
2022-10-19T01:10:20.156Z,0
2022-10-19T01:15:17.201Z,0
2022-10-19T01:20:17.137Z,0
2022-10-19T01:25:20.146Z,0
2022-10-19T01:30:20.153Z,0
2022-10-19T01:35:20.228Z,0
2022-10-19T01:40:20.154Z,0
2022-10-19T01:45:20.189Z,0
2022-10-19T01:50:17.182Z,0
2022-10-19T01:55:17.198Z,0
2022-10-19T02:00:17.156Z,0
2022-10-19T02:05:20.176Z,0
2022-10-19T02:10:20.221Z,0
2022-10-19T02:15:20.144Z,0
2022-10-19T02:20:20.154Z,0
2022-10-19T02:25:20.190Z,0
2022-10-19T02:30:17.193Z,0
2022-10-19T02:35:20.201Z,0
2022-10-19T02:40:20.206Z,0
2022-10-19T02:45:20.208Z,0
2022-10-19T02:50:20.205Z,0
2022-10-19T02:55:20.187Z,0
2022-10-19T03:00:20.194Z,0
2022-10-19T03:05:20.212Z,0
2022-10-19T03:10:17.208Z,0
2022-10-19T03:15:17.260Z,0
2022-10-19T03:20:17.224Z,0
2022-10-19T03:25:20.212Z,0
2022-10-19T03:30:20.212Z,0
2022-10-19T03:35:20.219Z,0
2022-10-19T03:40:20.197Z,0
2022-10-19T03:45:20.215Z,0
2022-10-19T03:50:20.212Z,0
2022-10-19T03:55:17.256Z,0
2022-10-19T04:00:16.480Z,0
2022-10-19T04:05:16.497Z,0
2022-10-19T04:10:16.491Z,0
2022-10-19T04:15:19.505Z,0
2022-10-19T04:20:19.522Z,0
2022-10-19T04:25:19.526Z,0
2022-10-19T04:30:19.457Z,0
2022-10-19T04:35:19.493Z,0
2022-10-19T04:40:19.493Z,0
2022-10-19T04:45:19.530Z,0
2022-10-19T04:50:16.498Z,0
2022-10-19T04:55:16.534Z,0
2022-10-19T05:00:16.507Z,0
2022-10-19T05:05:16.596Z,0
2022-10-19T05:10:16.512Z,0
2022-10-19T05:15:19.523Z,0
2022-10-19T05:20:19.513Z,0
2022-10-19T05:25:19.456Z,0
2022-10-19T05:30:16.501Z,0
2022-10-19T05:35:22.354Z,0
2022-10-19T05:40:16.505Z,0
2022-10-19T05:45:16.532Z,0
2022-10-19T05:50:16.515Z,0
2022-10-19T05:55:16.537Z,0
2022-10-19T06:00:16.569Z,0
2022-10-19T06:05:19.531Z,0
2022-10-19T06:10:19.541Z,0
2022-10-19T06:15:19.521Z,0
2022-10-19T06:20:19.495Z,0
2022-10-19T06:25:20.420Z,0
2022-10-19T06:30:19.609Z,0
2022-10-19T06:35:19.563Z,0
2022-10-19T06:40:16.602Z,0
2022-10-19T06:45:19.072Z,0
2022-10-19T06:50:20.206Z,0
2022-10-19T06:55:16.581Z,0
2022-10-19T07:00:19.586Z,0
2022-10-19T07:05:19.654Z,0
2022-10-19T07:10:19.526Z,0
2022-10-19T07:15:19.509Z,0
2022-10-19T07:20:19.522Z,0
2022-10-19T07:25:19.559Z,0
2022-10-19T07:30:16.466Z,0
2022-10-19T07:35:19.554Z,0
2022-10-19T07:40:16.568Z,0
2022-10-19T07:45:16.582Z,0
2022-10-19T07:50:16.620Z,0
2022-10-19T07:55:16.615Z,0
2022-10-19T08:00:16.629Z,0
2022-10-19T08:05:17.121Z,0
2022-10-19T08:10:16.649Z,0
2022-10-19T08:15:19.620Z,0
2022-10-19T08:20:19.620Z,0
2022-10-19T08:25:19.544Z,0
2022-10-19T08:30:19.551Z,0
2022-10-19T08:35:19.584Z,0
2022-10-19T08:40:19.615Z,0
2022-10-19T08:45:16.591Z,0
2022-10-19T08:50:16.601Z,0
2022-10-19T08:55:19.717Z,0
2022-10-19T09:00:16.648Z,0
2022-10-19T09:05:16.646Z,0
2022-10-19T09:10:16.655Z,0
2022-10-19T09:15:16.619Z,0
2022-10-19T09:20:20.112Z,0
2022-10-19T09:25:19.600Z,0
2022-10-19T09:30:16.677Z,0
2022-10-19T09:35:19.622Z,0
2022-10-19T09:40:19.641Z,0
2022-10-19T09:45:19.609Z,0
2022-10-19T09:50:19.923Z,0
2022-10-19T09:55:19.656Z,0
2022-10-19T10:00:19.645Z,0
2022-10-19T10:05:19.613Z,0
2022-10-19T10:10:19.602Z,0
2022-10-19T10:15:19.639Z,0
2022-10-19T10:20:19.669Z,0
2022-10-19T10:25:19.629Z,0
2022-10-19T10:30:19.645Z,0
2022-10-19T10:35:19.632Z,0
2022-10-19T10:40:22.666Z,0
2022-10-19T10:45:19.658Z,0
2022-10-19T10:50:16.667Z,0
2022-10-19T10:55:19.686Z,0
2022-10-19T11:00:19.656Z,0
2022-10-19T11:05:19.694Z,0
2022-10-19T11:10:19.654Z,0
2022-10-19T11:15:19.815Z,0
2022-10-19T11:20:19.635Z,0
2022-10-19T11:25:19.719Z,3
2022-10-19T11:30:16.673Z,7
2022-10-19T11:35:16.710Z,10
2022-10-19T11:40:21.174Z,12
2022-10-19T11:45:19.703Z,21
2022-10-19T11:50:19.709Z,31
2022-10-19T11:55:19.707Z,34
2022-10-19T12:00:37.590Z,37
2022-10-19T12:05:19.717Z,40
2022-10-19T12:10:16.715Z,43
2022-10-19T12:15:19.711Z,46
2022-10-19T12:20:19.978Z,48
2022-10-19T12:25:19.673Z,52
2022-10-19T12:30:19.724Z,54
2022-10-19T12:35:16.774Z,56
2022-10-19T12:40:16.775Z,57
2022-10-19T12:45:19.751Z,58
2022-10-19T12:50:25.166Z,58
2022-10-19T12:55:19.717Z,60
2022-10-19T13:00:19.679Z,60
2022-10-19T13:05:16.794Z,61
2022-10-19T13:10:16.709Z,62
2022-10-19T13:15:16.741Z,81
2022-10-19T13:20:19.754Z,294
2022-10-19T13:25:16.599Z,325
2022-10-19T13:30:19.734Z,339
2022-10-19T13:35:19.689Z,353
2022-10-19T13:40:20.524Z,366
2022-10-19T13:45:16.766Z,379
2022-10-19T13:50:16.734Z,393
2022-10-19T13:55:19.820Z,406
2022-10-19T14:00:19.720Z,420
2022-10-19T14:05:16.688Z,431
2022-10-19T14:10:21.010Z,443
2022-10-19T14:15:16.782Z,454
2022-10-19T14:20:16.810Z,466
2022-10-19T14:25:16.826Z,478
2022-10-19T14:30:19.831Z,488
2022-10-19T14:35:19.777Z,497
2022-10-19T14:40:23.551Z,508
2022-10-19T14:45:16.577Z,519
2022-10-19T14:50:16.794Z,528
2022-10-19T14:55:17.908Z,536
2022-10-19T15:00:16.839Z,545
2022-10-19T15:05:19.799Z,555
2022-10-19T15:10:19.759Z,561
2022-10-19T15:15:19.760Z,571
2022-10-19T15:20:19.721Z,579
2022-10-19T15:25:19.780Z,585
2022-10-19T15:30:16.812Z,592
2022-10-19T15:35:16.782Z,598
2022-10-19T15:40:16.826Z,603
2022-10-19T15:45:19.784Z,601
2022-10-19T15:50:19.764Z,610
2022-10-19T15:55:19.760Z,613
2022-10-19T16:00:19.799Z,617
2022-10-19T16:05:19.823Z,617
2022-10-19T16:10:16.800Z,60
2022-10-19T16:15:19.814Z,57
2022-10-19T16:20:19.783Z,98
2022-10-19T16:25:19.777Z,92
2022-10-19T16:30:16.860Z,94
2022-10-19T16:35:16.808Z,159
2022-10-19T16:40:19.813Z,65
2022-10-19T16:45:19.810Z,61
2022-10-19T16:50:19.811Z,69
2022-10-19T16:55:19.799Z,49
2022-10-19T17:00:16.828Z,61
2022-10-19T17:05:16.854Z,46
2022-10-19T17:10:19.922Z,39
2022-10-19T17:15:48.626Z,38
2022-10-19T17:20:16.776Z,37
2022-10-19T17:25:20.058Z,35
2022-10-19T17:30:16.874Z,33
2022-10-19T17:35:16.862Z,32
2022-10-19T17:40:19.839Z,34
2022-10-19T17:45:19.776Z,30
2022-10-19T17:50:19.821Z,32
2022-10-19T17:55:19.811Z,30
2022-10-19T18:00:19.814Z,30
2022-10-19T18:05:16.845Z,28
2022-10-19T18:10:19.829Z,28
2022-10-19T18:15:19.833Z,34
2022-10-19T18:20:19.883Z,26
2022-10-19T18:25:21.806Z,26
2022-10-19T18:30:16.843Z,25
2022-10-19T18:35:19.901Z,27
2022-10-19T18:40:19.863Z,41
2022-10-19T18:45:19.808Z,27
2022-10-19T18:50:19.863Z,41
2022-10-19T18:55:19.806Z,24
2022-10-19T19:00:16.873Z,23
2022-10-19T19:05:16.894Z,24
2022-10-19T19:10:19.886Z,23
2022-10-19T19:15:19.872Z,23
2022-10-19T19:20:16.887Z,22
2022-10-19T19:25:19.850Z,22
2022-10-19T19:30:16.870Z,33
2022-10-19T19:35:16.864Z,22
2022-10-19T19:40:16.919Z,22
2022-10-19T19:45:19.931Z,19
2022-10-19T19:50:19.847Z,19
2022-10-19T19:55:19.875Z,19
2022-10-19T20:00:19.831Z,19
2022-10-19T20:05:16.910Z,19
2022-10-19T20:10:16.895Z,19
2022-10-19T20:15:16.891Z,18
2022-10-19T20:20:19.957Z,18
2022-10-19T20:25:19.873Z,17
2022-10-19T20:30:19.839Z,16
2022-10-19T20:35:19.887Z,16
2022-10-19T20:40:19.931Z,14
2022-10-19T20:45:16.900Z,14
2022-10-19T20:50:19.294Z,14
2022-10-19T20:55:16.943Z,23
2022-10-19T21:00:19.924Z,21
2022-10-19T21:05:19.917Z,19
2022-10-19T21:10:19.904Z,12
2022-10-19T21:15:19.893Z,11
2022-10-19T21:20:16.957Z,10
2022-10-19T21:25:16.943Z,8
2022-10-19T21:30:16.975Z,8
2022-10-19T21:35:19.947Z,7
2022-10-19T21:40:19.939Z,5
2022-10-19T21:45:29.931Z,2
2022-10-19T21:50:19.950Z,0
2022-10-19T21:55:16.916Z,0
2022-10-19T22:00:16.954Z,0
2022-10-19T22:05:17.038Z,0
2022-10-19T22:10:19.934Z,0
2022-10-19T22:15:19.934Z,0
2022-10-19T22:20:19.927Z,0
2022-10-19T22:25:19.945Z,0
2022-10-19T22:30:19.899Z,0
2022-10-19T22:35:16.903Z,0
2022-10-19T22:40:16.951Z,0
2022-10-19T22:45:16.982Z,0
2022-10-19T22:50:16.966Z,0
2022-10-19T22:55:19.975Z,0
2022-10-19T23:00:20.009Z,0
2022-10-19T23:05:19.924Z,0
2022-10-19T23:10:19.966Z,0
2022-10-19T23:15:19.970Z,0
2022-10-19T23:20:17.019Z,0
2022-10-19T23:25:20.002Z,0
2022-10-19T23:30:19.961Z,0
2022-10-19T23:35:19.980Z,0
2022-10-19T23:40:16.997Z,0
2022-10-19T23:45:17.068Z,0
2022-10-19T23:50:19.950Z,0
2022-10-19T23:55:19.945Z,0
